< < Back
Terminal Aerodrome Forecast


Current Version              Previous Versions:   1  2  3  4  5  6  7  8  9  

Terminal Aerodrome Forecast

020
FTUS44 KBMX 232300
TAFTCL
TAF
KTCL 232320Z 2400/2424 18012G23KT P6SM SCT025 BKN050
     FM240500 21007KT 4SM BR SCT007 OVC015
     FM241500 24011KT P6SM OVC020
     FM241800 27012KT P6SM SCT020 BKN100=



Latest METAR

651
SAUS70 KWBC 240300 RRI
MTRTCL
METAR KTCL 240253Z AUTO 18009KT 10SM FEW016 17/14 A2963 RMK AO2 SLP033
T01720144 51017


USA.gov is the U.S. government's official web portal to all federal, state and local government web resources and services.